Time;durP1;ratioP1;P1;durP2;ratioP2;P2;SDS_P1;SDS_P2;PMS_P1;PMS_P2;Temp;Humidity;BMP_temperature;BMP_pressure;BME280_temperature;BME280_humidity;BME280_pressure;Samples;Min_cycle;Max_cycle;Signal;HPM_P1;HPM_P2
2022/03/24 00:00:53;;;;;;;55.72;19.80;;;;;;;9.24;32.50;95960.97;4932467;29;20664;-54
2022/03/24 00:03:20;;;;;;;38.85;18.52;;;;;;;9.27;32.50;95955.28;4932289;29;20632;-57
2022/03/24 00:05:53;;;;;;;42.55;20.10;;;;;;;9.07;32.93;95955.56;4933403;29;20208;-58
2022/03/24 00:08:20;;;;;;;41.90;19.20;;;;;;;9.23;31.94;95958.59;4933442;29;20208;-53
2022/03/24 00:10:47;;;;;;;38.38;19.45;;;;;;;9.19;32.45;95948.56;4932208;29;20684;-60
2022/03/24 00:13:15;;;;;;;38.47;20.30;;;;;;;9.09;32.43;95953.50;4933133;29;20260;-59
2022/03/24 00:15:42;;;;;;;38.00;20.60;;;;;;;9.14;31.97;95945.81;4931900;29;20724;-62
2022/03/24 00:18:09;;;;;;;36.28;19.13;;;;;;;9.22;32.20;95942.09;4932879;29;20245;-57
2022/03/24 00:20:37;;;;;;;37.33;20.17;;;;;;;8.92;32.48;95939.44;4932878;29;20227;-57
2022/03/24 00:23:04;;;;;;;45.67;20.10;;;;;;;9.00;32.70;95933.91;4932804;29;20305;-59
2022/03/24 00:25:30;;;;;;;46.63;22.05;;;;;;;8.88;33.30;95930.47;4932415;29;20224;-57
2022/03/24 00:27:57;;;;;;;53.90;25.30;;;;;;;8.83;32.88;95935.53;4932494;29;20195;-61
2022/03/24 00:30:24;;;;;;;52.28;26.55;;;;;;;8.80;33.17;95922.91;4915311;29;20208;-60
2022/03/24 00:32:51;;;;;;;53.90;26.17;;;;;;;8.92;32.77;95926.38;4932860;29;20204;-56
2022/03/24 00:35:18;;;;;;;58.78;26.25;;;;;;;8.86;33.18;95906.34;4915163;29;20211;-62
2022/03/24 00:37:46;;;;;;;58.05;25.80;;;;;;;9.09;32.90;95919.53;4932349;29;20746;-61
2022/03/24 00:40:16;;;;;;;51.63;24.58;;;;;;;8.85;33.73;95928.25;4914970;29;20204;-58
2022/03/24 00:42:45;;;;;;;61.53;26.27;;;;;;;8.95;33.18;95918.09;4930992;29;20676;-62
2022/03/24 00:45:15;;;;;;;63.28;29.08;;;;;;;8.85;33.35;95919.66;4914808;29;20184;-62
2022/03/24 00:47:43;;;;;;;72.88;33.55;;;;;;;8.65;33.72;95919.06;4932531;29;20236;-62
2022/03/24 00:50:11;;;;;;;89.65;40.90;;;;;;;8.61;33.76;95917.91;4931623;29;20589;-58
2022/03/24 00:52:44;;;;;;;84.65;39.70;;;;;;;8.65;33.77;95904.19;4930273;29;20208;-62
2022/03/24 00:55:17;;;;;;;96.78;40.78;;;;;;;8.69;33.22;95910.56;4930354;29;20267;-60
2022/03/24 00:57:49;;;;;;;96.68;45.25;;;;;;;8.41;33.97;95912.88;4931939;29;20255;-57
2022/03/24 01:00:19;;;;;;;101.75;45.85;;;;;;;8.23;34.45;95905.81;4931682;29;20196;-61
2022/03/24 01:02:49;;;;;;;97.40;44.47;;;;;;;8.11;34.53;95907.53;4932284;29;20580;-56
2022/03/24 01:05:16;;;;;;;97.00;43.70;;;;;;;8.09;34.09;95908.75;4914276;29;20209;-62
2022/03/24 01:07:46;;;;;;;92.22;42.60;;;;;;;8.33;34.29;95899.31;4914952;29;20770;-54
2022/03/24 01:10:15;;;;;;;90.50;41.25;;;;;;;8.39;33.40;95909.72;4932161;29;20582;-54
2022/03/24 01:12:44;;;;;;;88.38;42.13;;;;;;;8.40;33.69;95906.06;4932367;29;20197;-61
2022/03/24 01:15:14;;;;;;;93.38;45.00;;;;;;;8.35;33.86;95902.50;4934834;29;20196;-61
2022/03/24 01:17:41;;;;;;;88.32;42.35;;;;;;;8.15;33.52;95918.34;4938108;29;20393;-58
2022/03/24 01:20:10;;;;;;;95.75;45.95;;;;;;;7.77;34.68;95904.63;4938027;29;20227;-57
2022/03/24 01:22:37;;;;;;;86.40;44.08;;;;;;;7.96;34.21;95919.31;4938297;29;20676;-61
2022/03/24 01:25:06;;;;;;;87.05;41.00;;;;;;;6.91;35.52;95909.59;4937721;29;20188;-56
2022/03/24 01:27:34;;;;;;;77.82;38.85;;;;;;;7.31;35.25;95904.16;4920604;29;20219;-54
2022/03/24 01:30:02;;;;;;;75.20;38.88;;;;;;;7.63;35.25;95908.34;4920803;29;20287;-62
2022/03/24 01:32:28;;;;;;;75.88;37.92;;;;;;;6.85;36.02;95905.19;4921031;29;20251;-57
2022/03/24 01:34:56;;;;;;;73.50;36.88;;;;;;;7.46;35.44;95894.22;4920661;29;20228;-58
2022/03/24 01:37:23;;;;;;;85.80;40.63;;;;;;;7.00;36.40;95903.13;4937963;29;20245;-58
2022/03/24 01:39:51;;;;;;;84.68;39.58;;;;;;;7.05;35.67;95898.09;4920271;29;20230;-60
2022/03/24 01:42:20;;;;;;;82.72;40.35;;;;;;;7.09;35.79;95901.88;4938041;29;20223;-60
2022/03/24 01:44:48;;;;;;;87.35;39.53;;;;;;;7.43;35.22;95886.81;4937546;29;20211;-57
2022/03/24 01:47:16;;;;;;;74.25;35.58;;;;;;;6.54;36.57;95892.09;4937994;29;20265;-55
2022/03/24 01:49:47;;;;;;;68.70;33.15;;;;;;;7.16;35.44;95892.22;4935806;29;20276;-61
2022/03/24 01:52:18;;;;;;;62.70;29.55;;;;;;;6.31;36.45;95870.97;4936270;29;20212;-59
2022/03/24 01:54:53;;;;;;;70.72;33.50;;;;;;;6.82;36.27;95876.97;4937598;29;20222;-60
2022/03/24 01:57:21;;;;;;;71.95;36.63;;;;;;;6.87;36.18;95881.53;4937594;29;20741;-63
2022/03/24 01:59:49;;;;;;;71.95;34.22;;;;;;;7.03;35.95;95876.66;4937069;29;20212;-58
2022/03/24 02:02:16;;;;;;;68.68;31.85;;;;;;;6.54;36.94;95866.06;4920562;29;20259;-61
2022/03/24 02:04:45;;;;;;;67.38;30.55;;;;;;;7.00;36.61;95892.72;4937278;29;20210;-59
2022/03/24 02:07:14;;;;;;;66.57;32.45;;;;;;;6.12;37.32;95884.81;4920787;29;20213;-59
2022/03/24 02:09:43;;;;;;;63.78;30.08;;;;;;;6.31;37.60;95894.38;4920118;29;20209;-60
2022/03/24 02:12:14;;;;;;;66.38;31.65;;;;;;;6.72;36.82;95886.22;4936336;29;20679;-56
2022/03/24 02:14:42;;;;;;;64.63;31.75;;;;;;;6.84;36.65;95885.34;4919985;29;20207;-60
2022/03/24 02:17:09;;;;;;;59.85;27.33;;;;;;;7.01;36.16;95876.06;4920459;29;20232;-61
2022/03/24 02:19:37;;;;;;;57.10;28.92;;;;;;;7.17;36.15;95875.56;4919778;29;20212;-55
2022/03/24 02:22:09;;;;;;;47.72;25.83;;;;;;;7.39;35.75;95875.22;4920588;29;20196;-60
2022/03/24 02:24:37;;;;;;;53.70;25.35;;;;;;;7.27;35.47;95882.09;4937082;29;20204;-60
2022/03/24 02:27:04;;;;;;;51.05;24.90;;;;;;;7.35;35.68;95881.88;4934874;29;20282;-58
2022/03/24 02:29:31;;;;;;;48.55;24.48;;;;;;;7.12;35.92;95864.16;4934062;29;20193;-58
2022/03/24 02:31:59;;;;;;;41.78;23.98;;;;;;;7.05;36.00;95879.84;4934729;29;20208;-57
2022/03/24 02:34:38;;;;;;;47.58;24.02;;;;;;;6.27;37.51;95871.56;4933767;29;20243;-60
2022/03/24 02:37:08;;;;;;;45.83;24.15;;;;;;;6.84;36.92;95884.56;4934490;29;20279;-61
2022/03/24 02:39:38;;;;;;;47.70;22.40;;;;;;;7.00;36.69;95873.66;4933558;29;20295;-58
2022/03/24 02:42:07;;;;;;;47.83;23.35;;;;;;;7.02;36.47;95869.03;4934606;29;20219;-59
2022/03/24 02:44:34;;;;;;;45.40;22.38;;;;;;;7.05;36.12;95879.84;4934179;29;20592;-58
2022/03/24 02:47:03;;;;;;;43.13;22.45;;;;;;;7.38;35.68;95863.19;4934172;29;20584;-58
2022/03/24 02:49:31;;;;;;;44.00;22.08;;;;;;;7.36;35.95;95866.00;4933248;29;20236;-55
2022/03/24 02:52:00;;;;;;;46.85;22.30;;;;;;;6.66;36.99;95867.00;4934517;29;20283;-59
2022/03/24 02:54:29;;;;;;;43.58;21.02;;;;;;;7.08;36.48;95866.38;4933592;29;20200;-57
2022/03/24 02:56:57;;;;;;;42.25;21.40;;;;;;;7.02;36.73;95854.22;4933771;29;20226;-52
2022/03/24 02:59:24;;;;;;;46.00;22.13;;;;;;;7.07;36.14;95867.41;4933165;29;20199;-62
2022/03/24 03:01:58;;;;;;;44.83;23.83;;;;;;;7.26;36.38;95870.09;4934046;29;20204;-61
2022/03/24 03:04:31;;;;;;;50.67;23.85;;;;;;;7.22;35.82;95864.50;4933620;29;20613;-53
2022/03/24 03:07:00;;;;;;;56.80;25.08;;;;;;;6.10;38.24;95876.41;4933889;29;20289;-54
2022/03/24 03:09:27;;;;;;;52.47;27.52;;;;;;;6.68;37.15;95864.22;4933212;29;20691;-59
2022/03/24 03:11:54;;;;;;;55.17;26.55;;;;;;;6.90;36.80;95866.28;4934024;29;20204;-60
2022/03/24 03:14:21;;;;;;;55.17;26.25;;;;;;;6.89;36.80;95864.72;4933110;29;20208;-54
2022/03/24 03:16:48;;;;;;;50.83;25.98;;;;;;;6.43;37.63;95879.72;4933934;29;20212;-53
2022/03/24 03:19:19;;;;;;;53.10;25.15;;;;;;;6.93;36.86;95870.31;4933486;29;20208;-57
2022/03/24 03:21:49;;;;;;;49.55;24.02;;;;;;;6.66;37.47;95874.81;4933960;29;20232;-62
2022/03/24 03:24:18;;;;;;;47.42;23.83;;;;;;;6.44;37.82;95870.91;4933118;29;20275;-58
2022/03/24 03:26:46;;;;;;;45.30;25.33;;;;;;;6.68;37.34;95867.59;4933622;29;20197;-55
2022/03/24 03:29:13;;;;;;;53.90;24.65;;;;;;;6.77;37.09;95868.19;4932806;29;20189;-59
2022/03/24 03:31:40;;;;;;;48.00;23.30;;;;;;;7.00;36.42;95863.25;4933278;29;20643;-60
2022/03/24 03:34:09;;;;;;;45.47;23.20;;;;;;;7.14;36.43;95872.56;4932816;29;20200;-62
2022/03/24 03:36:37;;;;;;;53.38;25.70;;;;;;;7.06;36.73;95860.59;4932935;29;20609;-60
2022/03/24 03:39:09;;;;;;;55.53;26.17;;;;;;;7.13;36.90;95866.56;4932144;29;20215;-56
2022/03/24 03:41:38;;;;;;;48.25;25.77;;;;;;;7.11;36.57;95873.00;4933012;29;20715;-63
2022/03/24 03:44:06;;;;;;;51.80;26.98;;;;;;;7.13;36.81;95869.16;4932622;29;20199;-61
2022/03/24 03:46:34;;;;;;;56.67;27.50;;;;;;;7.12;36.66;95870.19;4933633;29;20756;-61
2022/03/24 03:49:01;;;;;;;68.38;31.02;;;;;;;7.10;36.87;95866.97;4932695;29;20208;-59
2022/03/24 03:51:30;;;;;;;67.32;36.85;;;;;;;6.80;37.22;95870.38;4933488;29;20197;-62
2022/03/24 03:53:56;;;;;;;69.55;35.55;;;;;;;6.86;37.66;95872.91;4932450;29;20185;-60
2022/03/24 03:56:23;;;;;;;70.63;39.42;;;;;;;6.89;36.84;95875.13;4932944;29;20185;-59
2022/03/24 03:58:50;;;;;;;76.40;38.63;;;;;;;6.98;36.82;95868.66;4933061;29;20223;-57
2022/03/24 04:01:17;;;;;;;76.53;37.95;;;;;;;7.09;36.88;95864.59;4932641;29;20207;-55
2022/03/24 04:03:44;;;;;;;74.53;36.15;;;;;;;6.91;37.30;95867.91;4933121;29;20256;-56
2022/03/24 04:06:12;;;;;;;73.10;38.00;;;;;;;6.98;36.97;95868.66;4932171;29;20208;-60
2022/03/24 04:08:42;;;;;;;80.03;40.92;;;;;;;6.79;37.01;95869.56;4932532;29;20208;-61
2022/03/24 04:11:10;;;;;;;91.10;44.78;;;;;;;6.78;37.20;95878.38;4932478;29;20216;-60
2022/03/24 04:13:39;;;;;;;109.00;51.20;;;;;;;6.56;37.34;95874.47;4932841;29;20579;-62
2022/03/24 04:16:11;;;;;;;122.95;59.80;;;;;;;6.74;36.89;95866.78;4932110;29;20215;-56
2022/03/24 04:18:43;;;;;;;110.25;54.65;;;;;;;6.80;36.74;95871.16;4932342;29;20319;-61
2022/03/24 04:21:11;;;;;;;108.97;53.45;;;;;;;6.77;36.82;95868.97;4932130;29;20727;-55
2022/03/24 04:23:39;;;;;;;104.82;49.22;;;;;;;6.72;36.58;95876.59;4932475;29;20219;-57
2022/03/24 04:26:08;;;;;;;108.43;50.30;;;;;;;6.75;36.67;95873.56;4932550;29;20196;-59
2022/03/24 04:28:34;;;;;;;101.15;49.20;;;;;;;6.67;36.50;95873.03;4932360;29;20200;-63
2022/03/24 04:31:01;;;;;;;99.65;48.72;;;;;;;6.73;36.32;95875.59;4931933;29;20268;-57
2022/03/24 04:33:28;;;;;;;88.22;46.50;;;;;;;6.69;36.39;95871.81;4932707;29;20200;-57
2022/03/24 04:35:58;;;;;;;90.30;43.72;;;;;;;6.57;36.89;95876.06;4932274;29;20287;-54
2022/03/24 04:38:26;;;;;;;84.78;43.78;;;;;;;6.34;37.10;95873.16;4932181;29;20299;-60
2022/03/24 04:40:56;;;;;;;89.80;43.08;;;;;;;6.36;37.24;95884.16;4932091;29;20193;-59
2022/03/24 04:43:24;;;;;;;92.40;45.33;;;;;;;6.15;37.33;95871.38;4932437;29;20212;-58
2022/03/24 04:45:51;;;;;;;83.82;43.05;;;;;;;5.94;37.58;95871.63;4931685;29;20200;-59
2022/03/24 04:48:18;;;;;;;79.45;41.58;;;;;;;6.24;37.24;95879.78;4931720;29;20200;-60
2022/03/24 04:50:45;;;;;;;76.70;38.35;;;;;;;6.20;40.30;95873.38;4930777;29;20580;-58
2022/03/24 04:53:14;;;;;;;61.50;33.65;;;;;;;6.33;40.42;95879.38;4931843;29;20197;-53
2022/03/24 04:55:42;;;;;;;58.22;32.13;;;;;;;6.39;39.47;95875.94;4931632;29;20660;-59
2022/03/24 04:58:10;;;;;;;55.70;29.83;;;;;;;6.50;38.62;95890.91;4931889;29;20579;-57
2022/03/24 05:00:37;;;;;;;54.00;27.95;;;;;;;6.58;37.47;95893.31;4929601;29;20196;-58
2022/03/24 05:03:04;;;;;;;48.60;26.33;;;;;;;6.64;37.03;95891.69;4930814;29;20208;-60
2022/03/24 05:05:32;;;;;;;47.30;25.65;;;;;;;6.59;37.15;95881.88;4927966;29;20204;-56
2022/03/24 05:07:59;;;;;;;52.17;26.65;;;;;;;6.58;36.67;95888.09;4930773;29;20263;-60
2022/03/24 05:10:27;;;;;;;46.30;25.77;;;;;;;6.42;37.14;95896.38;4930580;29;20292;-64
2022/03/24 05:12:54;;;;;;;44.85;25.42;;;;;;;6.53;37.07;95887.09;4931002;29;20245;-62
2022/03/24 05:15:22;;;;;;;41.63;24.08;;;;;;;6.61;36.92;95882.47;4930748;29;20218;-60
2022/03/24 05:17:50;;;;;;;49.08;23.17;;;;;;;6.54;36.73;95886.09;4931778;29;20224;-58
2022/03/24 05:20:17;;;;;;;43.08;23.40;;;;;;;6.57;36.86;95881.25;4931214;29;20753;-62
2022/03/24 05:22:44;;;;;;;42.95;23.73;;;;;;;6.65;36.65;95883.66;4931375;29;20275;-58
2022/03/24 05:25:11;;;;;;;57.10;24.33;;;;;;;6.52;36.92;95891.50;4930969;29;20706;-55
2022/03/24 05:27:38;;;;;;;44.03;23.48;;;;;;;6.10;37.49;95889.41;4931584;29;20193;-53
2022/03/24 05:30:05;;;;;;;42.47;23.27;;;;;;;6.48;37.18;95890.31;4931135;29;20244;-58
2022/03/24 05:32:32;;;;;;;39.92;22.80;;;;;;;6.54;36.77;95886.91;4932054;29;20205;-55
2022/03/24 05:35:00;;;;;;;46.40;23.35;;;;;;;6.90;36.39;95886.31;4929779;29;20208;-57
2022/03/24 05:37:28;;;;;;;54.42;23.30;;;;;;;6.89;36.57;95875.13;4928138;29;20231;-55
2022/03/24 05:39:55;;;;;;;43.15;22.77;;;;;;;7.06;40.75;95880.66;4929615;29;20219;-59
2022/03/24 05:42:22;;;;;;;45.05;21.55;;;;;;;7.38;38.58;95881.44;4922772;29;20205;-62
2022/03/24 05:44:49;;;;;;;41.95;21.88;;;;;;;7.53;37.43;95876.72;4930193;29;20216;-60
2022/03/24 05:47:16;;;;;;;47.28;21.95;;;;;;;7.07;36.88;95883.03;4930801;29;20263;-62
2022/03/24 05:49:44;;;;;;;41.42;22.35;;;;;;;7.59;36.41;95881.88;4930167;29;20236;-59
2022/03/24 05:52:30;;;;;;;40.40;21.55;;;;;;;7.49;37.07;95892.00;4931649;29;20303;-61
2022/03/24 05:54:57;;;;;;;42.65;20.85;;;;;;;7.73;36.73;95879.97;4931041;29;20269;-56
2022/03/24 05:57:24;;;;;;;37.15;19.00;;;;;;;7.81;36.52;95874.50;4930334;29;20212;-60
2022/03/24 05:59:51;;;;;;;48.42;19.77;;;;;;;8.05;37.18;95881.47;4931033;29;20212;-56
2022/03/24 06:02:18;;;;;;;48.78;20.52;;;;;;;8.02;36.86;95863.66;4933397;29;20196;-61
2022/03/24 06:04:46;;;;;;;47.88;20.08;;;;;;;7.95;37.56;95876.78;4934666;29;20295;-59
2022/03/24 06:07:17;;;;;;;46.15;22.08;;;;;;;8.41;36.48;95868.47;4934939;29;20623;-61
2022/03/24 06:09:48;;;;;;;55.00;25.38;;;;;;;8.52;37.96;95877.44;4934052;29;20224;-60
2022/03/24 06:12:15;;;;;;;49.72;27.88;;;;;;;8.72;37.60;95878.00;4918148;29;20237;-63
2022/03/24 06:14:42;;;;;;;46.10;22.27;;;;;;;8.60;37.02;95872.69;4934165;29;20200;-59
2022/03/24 06:17:09;;;;;;;51.35;22.33;;;;;;;8.66;36.97;95871.81;4934947;29;20240;-57
2022/03/24 06:19:37;;;;;;;35.58;21.23;;;;;;;8.65;36.55;95878.06;4934151;29;20314;-58
2022/03/24 06:22:04;;;;;;;40.75;19.85;;;;;;;8.85;36.22;95873.38;4934722;29;20283;-58
2022/03/24 06:24:31;;;;;;;44.72;20.17;;;;;;;8.89;35.84;95861.47;4934494;29;20200;-56
2022/03/24 06:26:59;;;;;;;47.78;21.83;;;;;;;8.98;35.46;95851.50;4934763;29;20203;-60
2022/03/24 06:29:25;;;;;;;40.97;21.42;;;;;;;9.23;34.94;95862.63;4933576;29;20203;-56
2022/03/24 06:31:52;;;;;;;45.67;22.13;;;;;;;9.24;36.70;95861.59;4934648;29;20204;-58
2022/03/24 06:34:20;;;;;;;46.45;21.73;;;;;;;9.20;37.48;95856.00;4934217;29;20948;-63
2022/03/24 06:36:47;;;;;;;50.20;21.63;;;;;;;9.42;36.13;95858.09;4934588;29;20225;-61
2022/03/24 06:39:13;;;;;;;43.92;20.27;;;;;;;9.37;35.16;95855.38;4933831;29;20213;-59
2022/03/24 06:41:40;;;;;;;37.15;19.55;;;;;;;9.57;35.76;95861.09;4932442;29;20244;-64
2022/03/24 06:44:07;;;;;;;43.13;19.10;;;;;;;9.59;35.19;95857.25;4933500;29;20227;-56
2022/03/24 06:46:35;;;;;;;40.58;19.27;;;;;;;9.57;34.05;95855.88;4934469;29;20583;-56
2022/03/24 06:49:03;;;;;;;39.45;18.60;;;;;;;9.58;34.74;95857.47;4933426;29;20809;-60
2022/03/24 06:51:30;;;;;;;46.35;19.10;;;;;;;9.62;34.07;95848.13;4934566;29;20473;-62
2022/03/24 06:53:58;;;;;;;34.75;17.90;;;;;;;9.65;34.56;95853.72;4934428;29;20203;-54
2022/03/24 06:56:25;;;;;;;32.67;17.20;;;;;;;9.84;34.27;95846.56;4934789;29;20755;-57
2022/03/24 06:58:52;;;;;;;36.42;18.52;;;;;;;10.00;33.48;95841.44;4933946;29;20228;-64
2022/03/24 07:01:20;;;;;;;44.65;20.63;;;;;;;9.91;34.10;95847.25;4933523;29;20209;-56
2022/03/24 07:03:47;;;;;;;42.85;21.73;;;;;;;10.24;33.96;95844.88;4934145;29;20196;-60
2022/03/24 07:06:14;;;;;;;48.20;22.27;;;;;;;10.49;33.74;95845.38;4934253;29;20200;-55
2022/03/24 07:08:41;;;;;;;44.88;23.08;;;;;;;10.38;33.44;95843.63;4934297;29;20201;-57
2022/03/24 07:11:08;;;;;;;40.47;21.98;;;;;;;10.34;32.90;95846.91;4933933;29;20615;-58
2022/03/24 07:13:36;;;;;;;45.58;23.00;;;;;;;10.57;32.58;95837.19;4933578;29;20208;-56
2022/03/24 07:16:08;;;;;;;50.35;25.42;;;;;;;10.69;33.04;95848.41;4933634;29;20790;-58
2022/03/24 07:18:36;;;;;;;46.92;22.17;;;;;;;10.68;33.56;95832.91;4933735;29;20213;-57
2022/03/24 07:21:03;;;;;;;48.13;22.63;;;;;;;10.64;33.55;95837.03;4932980;29;20193;-61
2022/03/24 07:23:30;;;;;;;48.10;21.95;;;;;;;10.67;33.08;95832.16;4933470;29;20291;-63
2022/03/24 07:25:57;;;;;;;48.05;23.65;;;;;;;10.92;32.69;95837.88;4933095;29;20676;-57
2022/03/24 07:28:24;;;;;;;47.53;23.83;;;;;;;11.11;33.13;95834.00;4933743;29;20648;-54
2022/03/24 07:30:50;;;;;;;46.60;24.38;;;;;;;11.41;32.94;95838.19;4933223;29;20209;-64
2022/03/24 07:33:20;;;;;;;46.33;24.93;;;;;;;11.61;32.42;95833.25;4933771;29;20201;-61
2022/03/24 07:35:48;;;;;;;46.63;25.00;;;;;;;11.68;32.25;95839.19;4933287;29;20453;-64
2022/03/24 07:38:16;;;;;;;43.60;25.23;;;;;;;11.26;31.81;95830.06;4933251;29;20499;-62
2022/03/24 07:40:52;;;;;;;51.37;28.20;;;;;;;11.34;31.99;95829.66;4932844;29;20204;-60
2022/03/24 07:43:19;;;;;;;53.37;28.57;;;;;;;11.32;32.00;95826.47;4933465;29;20453;-58
2022/03/24 07:45:46;;;;;;;50.13;27.07;;;;;;;11.61;32.09;95830.63;4916219;29;20448;-54
2022/03/24 07:48:20;;;;;;;51.50;29.30;;;;;;;11.89;31.55;95828.78;4933339;29;20476;-62
2022/03/24 07:50:49;;;;;;;50.77;26.57;;;;;;;12.22;31.91;95826.06;4932959;29;20463;-59
2022/03/24 07:53:22;;;;;;;48.47;25.70;;;;;;;12.53;31.63;95822.00;4933297;29;20436;-61
2022/03/24 07:55:49;;;;;;;46.37;25.47;;;;;;;12.49;31.47;95804.34;4932904;29;20448;-56
2022/03/24 07:58:17;;;;;;;50.73;26.03;;;;;;;12.82;31.70;95815.53;4933099;29;20483;-58
2022/03/24 08:00:45;;;;;;;50.00;24.73;;;;;;;12.97;30.93;95814.88;4932770;29;20459;-59
2022/03/24 08:03:14;;;;;;;45.40;24.83;;;;;;;12.90;30.55;95815.06;4932909;29;20456;-60
2022/03/24 08:05:41;;;;;;;44.77;24.13;;;;;;;13.03;31.14;95812.06;4932880;29;20447;-59
2022/03/24 08:08:12;;;;;;;47.30;24.67;;;;;;;13.29;30.64;95804.41;4932893;29;20441;-57
2022/03/24 08:10:41;;;;;;;36.77;22.80;;;;;;;13.26;29.97;95799.66;4932436;29;20456;-60
2022/03/24 08:13:09;;;;;;;47.57;22.30;;;;;;;13.51;29.72;95797.25;4932671;29;20471;-59
2022/03/24 08:15:37;;;;;;;46.30;21.60;;;;;;;13.49;29.82;95791.44;4932230;29;20987;-56
2022/03/24 08:18:05;;;;;;;43.70;23.00;;;;;;;13.91;29.91;95794.91;4932778;29;20447;-59
2022/03/24 08:20:32;;;;;;;45.73;22.50;;;;;;;14.20;29.43;95796.13;4932131;29;20453;-56
2022/03/24 08:23:00;;;;;;;39.97;21.77;;;;;;;14.58;29.12;95784.47;4932878;29;20451;-60
2022/03/24 08:25:26;;;;;;;51.50;24.00;;;;;;;14.46;28.60;95776.78;4931714;29;20444;-65
2022/03/24 08:27:53;;;;;;;39.07;21.57;;;;;;;14.67;29.04;95786.34;4932787;29;20443;-58
2022/03/24 08:30:20;;;;;;;42.20;22.23;;;;;;;14.93;27.90;95785.38;4931874;29;20440;-60
2022/03/24 08:32:47;;;;;;;40.97;20.40;;;;;;;14.92;27.80;95783.00;4932407;29;20527;-61
2022/03/24 08:35:15;;;;;;;43.57;20.37;;;;;;;14.85;27.46;95767.41;4932045;29;20466;-55
2022/03/24 08:37:42;;;;;;;34.40;16.87;;;;;;;14.70;26.92;95780.56;4932574;29;20482;-63
2022/03/24 08:40:10;;;;;;;42.67;18.60;;;;;;;15.06;27.28;95774.31;4931973;29;20524;-59
2022/03/24 08:42:38;;;;;;;38.47;17.63;;;;;;;15.57;27.05;95775.19;4932229;29;21006;-58
2022/03/24 08:45:07;;;;;;;31.47;17.03;;;;;;;15.30;25.45;95779.88;4931596;29;20860;-60
2022/03/24 08:47:34;;;;;;;42.57;17.07;;;;;;;15.89;25.91;95766.97;4932550;29;20452;-57
2022/03/24 08:50:02;;;;;;;34.37;17.33;;;;;;;15.94;25.26;95764.31;4931646;29;20456;-56
2022/03/24 08:52:29;;;;;;;27.87;16.03;;;;;;;16.05;26.35;95766.66;4932556;29;20459;-58
2022/03/24 08:54:57;;;;;;;30.67;14.30;;;;;;;16.13;25.13;95746.78;4932368;29;20432;-54
2022/03/24 08:57:28;;;;;;;23.63;12.27;;;;;;;16.16;24.14;95759.50;4932617;29;20437;-56
2022/03/24 08:59:56;;;;;;;26.83;13.20;;;;;;;16.54;24.43;95743.00;4931744;29;21019;-65
2022/03/24 09:02:23;;;;;;;22.70;12.60;;;;;;;16.36;24.73;95746.22;4914928;29;20955;-61
2022/03/24 09:04:50;;;;;;;21.37;13.37;;;;;;;16.36;24.64;95751.50;4931983;29;20444;-59
2022/03/24 09:07:33;;;;;;;20.57;12.80;;;;;;;16.67;24.76;95747.69;4932188;29;20448;-56
2022/03/24 09:10:01;;;;;;;22.77;11.80;;;;;;;17.31;24.80;95741.47;4931255;29;20484;-64
2022/03/24 09:12:28;;;;;;;19.60;11.43;;;;;;;17.29;24.87;95733.00;4932094;29;20475;-61
2022/03/24 09:14:55;;;;;;;34.70;12.37;;;;;;;17.59;24.66;95733.56;4931651;29;20440;-59
2022/03/24 09:17:21;;;;;;;33.97;13.33;;;;;;;18.12;24.54;95731.72;4932002;29;20460;-61
2022/03/24 09:19:49;;;;;;;19.30;10.33;;;;;;;17.19;23.09;95724.06;4931429;29;21038;-60
2022/03/24 09:22:16;;;;;;;22.53;10.93;;;;;;;17.64;23.66;95722.94;4932245;29;20456;-62
2022/03/24 09:24:43;;;;;;;17.57;9.80;;;;;;;17.74;23.41;95724.69;4931738;29;20476;-62
2022/03/24 09:27:10;;;;;;;24.83;10.43;;;;;;;18.12;23.66;95726.41;4932355;29;20464;-54
2022/03/24 09:29:37;;;;;;;18.63;10.37;;;;;;;18.07;22.17;95713.22;4931218;29;20436;-59
2022/03/24 09:32:04;;;;;;;18.53;9.87;;;;;;;17.95;22.94;95704.88;4932695;29;20452;-59
2022/03/24 09:34:31;;;;;;;19.30;9.73;;;;;;;18.19;21.93;95701.13;4931851;29;20437;-55
2022/03/24 09:36:58;;;;;;;18.90;10.00;;;;;;;18.14;22.50;95695.09;4934644;29;20480;-57
2022/03/24 09:39:25;;;;;;;22.27;11.03;;;;;;;19.33;21.38;95692.97;4934690;29;21299;-60
2022/03/24 09:41:53;;;;;;;17.90;9.53;;;;;;;19.36;20.33;95687.09;4935769;29;20476;-64
2022/03/24 09:44:20;;;;;;;25.90;9.87;;;;;;;20.20;20.59;95680.53;4935478;29;20465;-56
2022/03/24 09:46:47;;;;;;;20.47;8.47;;;;;;;19.53;19.59;95682.00;4935628;29;20443;-60
2022/03/24 09:49:15;;;;;;;12.97;8.17;;;;;;;20.43;19.93;95680.31;4935129;29;20451;-58
2022/03/24 09:51:43;;;;;;;17.93;9.00;;;;;;;18.75;19.67;95677.34;4935616;29;20439;-60
2022/03/24 09:54:11;;;;;;;20.70;8.70;;;;;;;19.83;20.17;95676.16;4934996;29;20459;-60
2022/03/24 09:56:39;;;;;;;12.40;8.53;;;;;;;20.52;18.56;95662.56;4935824;29;20523;-58
2022/03/24 09:59:09;;;;;;;15.17;8.07;;;;;;;20.91;18.55;95661.97;4935196;29;20480;-61
2022/03/24 10:01:39;;;;;;;13.83;8.27;;;;;;;21.01;18.35;95662.56;4935730;29;20463;-61
2022/03/24 10:04:18;;;;;;;14.00;8.07;;;;;;;20.93;17.91;95663.22;4935559;29;20444;-62
2022/03/24 10:07:02;;;;;;;16.23;8.73;;;;;;;20.93;17.65;95654.44;4935469;29;20499;-62
2022/03/24 10:09:46;;;;;;;21.40;8.33;;;;;;;21.15;17.85;95652.63;4934900;29;20459;-61
2022/03/24 10:12:36;;;;;;;16.50;8.07;;;;;;;20.69;17.38;95646.72;4935401;29;20475;-60
2022/03/24 10:15:09;;;;;;;16.47;7.97;;;;;;;20.96;17.30;95646.66;4934494;29;20483;-59
2022/03/24 10:17:38;;;;;;;12.37;8.17;;;;;;;20.04;18.21;95646.22;4935486;29;20916;-58
2022/03/24 10:20:15;;;;;;;15.17;8.27;;;;;;;19.97;17.69;95639.69;4934245;29;20492;-59
2022/03/24 10:23:03;;;;;;;16.83;7.90;;;;;;;20.74;17.59;95630.66;4934893;29;20526;-62
2022/03/24 10:25:33;;;;;;;14.70;7.57;;;;;;;19.05;18.19;95642.38;4934368;29;20455;-63
2022/03/24 10:28:18;;;;;;;13.33;7.20;;;;;;;19.32;17.68;95632.94;4935112;29;20447;-58
2022/03/24 10:30:52;;;;;;;11.27;7.43;;;;;;;19.97;17.31;95629.06;4934339;29;20451;-59
2022/03/24 10:33:30;;;;;;;14.10;8.07;;;;;;;19.95;17.53;95609.94;4934878;29;20943;-56
2022/03/24 10:36:10;;;;;;;18.27;8.10;;;;;;;19.07;17.71;95620.81;4934027;29;20456;-57
2022/03/24 10:38:41;;;;;;;18.37;8.30;;;;;;;20.27;17.13;95609.88;4934480;29;20480;-61
2022/03/24 10:41:30;;;;;;;24.70;8.50;;;;;;;21.21;16.67;95610.63;4933927;29;20441;-56
2022/03/24 10:43:59;;;;;;;19.57;8.00;;;;;;;20.87;16.67;95600.50;4934388;29;20453;-60
2022/03/24 10:46:29;;;;;;;17.17;8.57;;;;;;;21.15;16.77;95593.19;4934537;29;20444;-59
2022/03/24 10:48:56;;;;;;;15.10;8.30;;;;;;;21.46;16.58;95595.88;4933429;29;20959;-58
2022/03/24 10:51:23;;;;;;;22.37;8.37;;;;;;;21.41;16.55;95588.78;4934135;29;20445;-64
2022/03/24 10:53:50;;;;;;;15.87;7.83;;;;;;;20.69;16.89;95588.13;4934488;29;20840;-59
2022/03/24 10:56:27;;;;;;;14.20;7.50;;;;;;;21.50;16.52;95575.50;4934173;29;20519;-65
2022/03/24 10:59:00;;;;;;;17.00;7.83;;;;;;;21.15;16.36;95578.00;4934236;29;20845;-58
2022/03/24 11:01:29;;;;;;;24.40;8.13;;;;;;;22.09;17.36;95578.41;4934062;29;20448;-59
2022/03/24 11:03:59;;;;;;;16.33;7.53;;;;;;;22.50;16.49;95566.53;4933719;29;20452;-62
2022/03/24 11:06:27;;;;;;;15.43;8.27;;;;;;;22.55;15.64;95564.53;4934511;29;20451;-63
2022/03/24 11:08:56;;;;;;;11.43;7.77;;;;;;;23.17;15.24;95555.00;4934124;29;21082;-60
2022/03/24 11:11:24;;;;;;;14.67;7.67;;;;;;;22.22;15.01;95544.66;4933681;29;20452;-60
2022/03/24 11:13:55;;;;;;;10.47;6.97;;;;;;;21.53;15.61;95553.56;4934148;29;20507;-59
2022/03/24 11:16:40;;;;;;;14.43;6.97;;;;;;;20.96;15.83;95549.94;4933971;29;20494;-57
2022/03/24 11:19:15;;;;;;;10.63;7.37;;;;;;;22.41;16.04;95550.47;4933568;29;20487;-60
2022/03/24 11:21:42;;;;;;;13.57;7.53;;;;;;;21.04;15.79;95563.34;4933717;29;20972;-62
2022/03/24 11:24:09;;;;;;;15.00;7.07;;;;;;;21.30;15.56;95541.38;4933471;29;20470;-63
2022/03/24 11:26:36;;;;;;;19.13;7.20;;;;;;;21.50;15.81;95527.50;4934236;29;20456;-59
2022/03/24 11:29:04;;;;;;;18.03;7.63;;;;;;;22.39;15.41;95525.22;4933244;29;20437;-57
2022/03/24 11:31:32;;;;;;;12.10;7.57;;;;;;;23.00;15.08;95517.63;4933606;29;20983;-60